Time,TemperatureF,DewpointF,PressureIn,WindDirection,WindDirectionDegrees,WindSpeedMPH,WindSpeedGustMPH,Humidity,HourlyPrecipIn,Conditions,Clouds,dailyrainin,SoftwareType,DateUTC
2013-02-06 00:16:00,25.8,22.2,29.96,WSW,240,9.0,11.0,86,0.00,,,0.00,VWS V14.01,2013-02-06 05:16:00,
2013-02-06 00:31:00,25.7,22.4,29.96,WSW,251,2.0,9.0,87,0.00,,,0.00,VWS V14.01,2013-02-06 05:31:00,
2013-02-06 00:46:00,25.7,22.6,29.96,WSW,249,4.0,8.0,88,0.00,,,0.00,VWS V14.01,2013-02-06 05:46:00,
2013-02-06 01:01:00,25.8,23.0,29.96,WSW,244,2.0,8.0,89,0.00,,,0.00,VWS V14.01,2013-02-06 06:01:00,
2013-02-06 01:16:00,25.8,23.0,29.96,WSW,238,3.0,7.0,89,0.00,,,0.00,VWS V14.01,2013-02-06 06:16:00,
2013-02-06 01:31:00,26.0,23.2,29.96,WSW,247,3.0,7.0,89,0.00,,,0.00,VWS V14.01,2013-02-06 06:31:00,
2013-02-06 01:46:00,26.2,23.1,29.97,WSW,241,2.0,8.0,88,0.00,,,0.00,VWS V14.01,2013-02-06 06:46:00,
2013-02-06 02:01:00,26.3,23.0,29.97,WSW,244,3.0,7.0,87,0.00,,,0.00,VWS V14.01,2013-02-06 07:01:00,
2013-02-06 02:16:00,26.5,23.2,29.97,WSW,242,3.0,5.0,87,0.00,,,0.00,VWS V14.01,2013-02-06 07:16:00,
2013-02-06 02:31:00,26.6,23.3,29.98,WSW,252,4.0,5.0,87,0.00,,,0.00,VWS V14.01,2013-02-06 07:31:00,
2013-02-06 02:46:00,26.8,23.5,29.98,WSW,243,2.0,5.0,87,0.00,,,0.00,VWS V14.01,2013-02-06 07:46:00,
2013-02-06 03:01:00,26.9,23.3,29.99,WSW,250,1.0,5.0,86,0.00,,,0.00,VWS V14.01,2013-02-06 08:01:00,
2013-02-06 03:16:00,26.9,23.6,29.98,WSW,250,3.0,5.0,87,0.00,,,0.00,VWS V14.01,2013-02-06 08:16:00,
2013-02-06 03:31:00,27.0,23.6,29.98,WSW,252,2.0,6.0,87,0.00,,,0.00,VWS V14.01,2013-02-06 08:31:00,
2013-02-06 03:46:00,27.0,23.6,29.99,West,268,1.0,5.0,87,0.00,,,0.00,VWS V14.01,2013-02-06 08:46:00,
2013-02-06 04:01:00,27.2,23.6,29.99,WSW,239,0.0,6.0,86,0.00,,,0.00,VWS V14.01,2013-02-06 09:01:00,
2013-02-06 04:16:00,27.4,23.8,30.00,West,278,4.0,7.0,86,0.00,,,0.00,VWS V14.01,2013-02-06 09:16:00,
2013-02-06 04:31:00,27.6,23.7,30.00,West,274,4.0,8.0,85,0.00,,,0.00,VWS V14.01,2013-02-06 09:31:00,
2013-02-06 04:46:00,27.7,23.5,30.01,WSW,257,5.0,9.0,84,0.00,,,0.00,VWS V14.01,2013-02-06 09:46:00,
2013-02-06 05:01:00,27.8,23.6,30.03,West,259,7.0,9.0,84,0.00,,,0.00,VWS V14.01,2013-02-06 10:01:00,
2013-02-06 05:16:00,27.7,23.5,30.04,WNW,294,2.0,11.0,84,0.00,,,0.00,VWS V14.01,2013-02-06 10:16:00,
2013-02-06 05:31:00,27.7,23.5,30.05,WNW,292,4.0,12.0,84,0.00,,,0.00,VWS V14.01,2013-02-06 10:31:00,
2013-02-06 05:46:00,27.6,22.8,30.05,West,265,2.0,12.0,82,0.00,,,0.00,VWS V14.01,2013-02-06 10:46:00,
2013-02-06 06:01:00,27.8,22.4,30.06,WNW,283,2.0,9.0,80,0.00,,,0.00,VWS V14.01,2013-02-06 11:01:00,
2013-02-06 06:16:00,27.8,21.9,30.07,WNW,284,2.0,14.0,78,0.00,,,0.00,VWS V14.01,2013-02-06 11:16:00,
2013-02-06 06:31:00,27.2,22.7,30.08,WNW,289,3.0,11.0,83,0.00,,,0.00,VWS V14.01,2013-02-06 11:31:00,
2013-02-06 06:46:00,26.7,23.4,30.09,NW,312,4.0,8.0,87,0.00,,,0.00,VWS V14.01,2013-02-06 11:46:00,
2013-02-06 07:01:00,26.5,23.4,30.10,NW,307,1.0,12.0,88,0.00,,,0.00,VWS V14.01,2013-02-06 12:01:00,
2013-02-06 07:16:00,26.1,23.3,30.11,WNW,287,2.0,9.0,89,0.00,,,0.00,VWS V14.01,2013-02-06 12:16:00,
2013-02-06 07:31:00,25.4,22.1,30.12,WNW,283,5.0,12.0,87,0.00,,,0.00,VWS V14.01,2013-02-06 12:31:00,
2013-02-06 07:46:00,24.9,20.8,30.14,NW,315,2.0,11.0,84,0.00,,,0.00,VWS V14.01,2013-02-06 12:46:00,
2013-02-06 08:01:00,25.1,19.2,30.16,WNW,295,8.0,12.0,78,0.00,,,0.00,VWS V14.01,2013-02-06 13:01:00,
2013-02-06 08:16:00,25.2,17.8,30.17,NNE,19,2.0,11.0,73,0.00,,,0.00,VWS V14.01,2013-02-06 13:16:00,
2013-02-06 08:31:00,25.3,17.2,30.18,SW,234,6.0,14.0,71,0.00,,,0.00,VWS V14.01,2013-02-06 13:31:00,
2013-02-06 08:46:00,25.3,17.2,30.19,West,279,10.0,12.0,71,0.00,,,0.00,VWS V14.01,2013-02-06 13:46:00,
2013-02-06 09:01:00,25.4,17.0,30.19,West,271,5.0,14.0,70,0.00,,,0.00,VWS V14.01,2013-02-06 14:01:00,
2013-02-06 09:16:00,25.3,16.6,30.20,WNW,298,1.0,13.0,69,0.00,,,0.00,VWS V14.01,2013-02-06 14:16:00,
2013-02-06 09:31:00,25.2,16.8,30.22,WNW,290,4.0,15.0,70,0.00,,,0.00,VWS V14.01,2013-02-06 14:31:00,
2013-02-06 09:46:00,25.1,18.3,30.23,NNW,338,1.0,11.0,75,0.00,,,0.00,VWS V14.01,2013-02-06 14:46:00,
2013-02-06 10:01:00,23.8,18.5,30.24,North,355,3.0,12.0,80,0.00,,,0.00,VWS V14.01,2013-02-06 15:01:00,
2013-02-06 10:16:00,23.6,17.8,30.25,WNW,302,3.0,10.0,78,0.00,,,0.00,VWS V14.01,2013-02-06 15:16:00,
2013-02-06 10:31:00,24.2,18.0,30.26,WNW,282,1.0,10.0,77,0.00,,,0.00,VWS V14.01,2013-02-06 15:31:00,
2013-02-06 10:46:00,23.9,17.5,30.27,West,279,4.0,10.0,76,0.00,,,0.00,VWS V14.01,2013-02-06 15:46:00,
2013-02-06 11:01:00,23.8,17.0,30.28,WNW,296,2.0,10.0,75,0.00,,,0.00,VWS V14.01,2013-02-06 16:01:00,
2013-02-06 11:16:00,23.5,17.1,30.28,NW,306,5.0,12.0,76,0.00,,,0.00,VWS V14.01,2013-02-06 16:16:00,
2013-02-06 11:31:00,23.5,16.1,30.29,North,355,2.0,15.0,73,0.00,,,0.00,VWS V14.01,2013-02-06 16:31:00,
2013-02-06 11:46:00,23.5,15.8,30.29,NNW,343,2.0,10.0,72,0.00,,,0.00,VWS V14.01,2013-02-06 16:46:00,
2013-02-06 12:01:00,23.3,14.6,30.30,WNW,292,4.0,11.0,69,0.00,,,0.00,VWS V14.01,2013-02-06 17:01:00,
2013-02-06 12:16:00,23.2,13.9,30.31,WNW,299,10.0,13.0,67,0.00,,,0.00,VWS V14.01,2013-02-06 17:16:00,
2013-02-06 12:31:00,23.2,12.8,30.31,West,273,2.0,11.0,64,0.00,,,0.00,VWS V14.01,2013-02-06 17:31:00,
2013-02-06 12:46:00,23.4,10.8,30.31,WNW,286,2.0,12.0,58,0.00,,,0.00,VWS V14.01,2013-02-06 17:46:00,
2013-02-06 13:01:00,23.6,10.2,30.31,WNW,302,3.0,11.0,56,0.00,,,0.00,VWS V14.01,2013-02-06 18:01:00,
2013-02-06 13:16:00,23.7,11.1,30.32,West,263,5.0,9.0,58,0.00,,,0.00,VWS V14.01,2013-02-06 18:16:00,
2013-02-06 13:31:00,23.6,11.0,30.32,WNW,291,0.0,12.0,58,0.00,,,0.00,VWS V14.01,2013-02-06 18:31:00,
2013-02-06 13:46:00,24.3,11.3,30.33,WNW,295,4.0,9.0,57,0.00,,,0.00,VWS V14.01,2013-02-06 18:46:00,
2013-02-06 14:01:00,24.5,11.5,30.34,NW,312,3.0,9.0,57,0.00,,,0.00,VWS V14.01,2013-02-06 19:01:00,
2013-02-06 14:16:00,24.2,10.8,30.34,West,276,1.0,10.0,56,0.00,,,0.00,VWS V14.01,2013-02-06 19:16:00,
2013-02-06 14:31:00,23.9,10.5,30.34,WNW,289,2.0,11.0,56,0.00,,,0.00,VWS V14.01,2013-02-06 19:31:00,
2013-02-06 14:46:00,24.2,11.2,30.34,WNW,284,1.0,9.0,57,0.00,,,0.00,VWS V14.01,2013-02-06 19:46:00,
2013-02-06 15:01:00,23.9,10.9,30.35,WSW,250,5.0,9.0,57,0.00,,,0.00,VWS V14.01,2013-02-06 20:01:00,
2013-02-06 15:16:00,23.9,11.3,30.35,West,267,0.0,9.0,58,0.00,,,0.00,VWS V14.01,2013-02-06 20:16:00,
2013-02-06 15:31:00,24.0,11.8,30.36,West,268,5.0,8.0,59,0.00,,,0.00,VWS V14.01,2013-02-06 20:31:00,
2013-02-06 15:46:00,23.9,11.7,30.37,NW,309,1.0,7.0,59,0.00,,,0.00,VWS V14.01,2013-02-06 20:46:00,
2013-02-06 16:01:00,24.5,11.9,30.38,West,270,2.0,6.0,58,0.00,,,0.00,VWS V14.01,2013-02-06 21:01:00,
2013-02-06 16:16:00,24.0,12.1,30.38,NNE,14,0.0,7.0,60,0.00,,,0.00,VWS V14.01,2013-02-06 21:16:00,
2013-02-06 16:31:00,23.6,11.4,30.38,WNW,290,0.0,4.0,59,0.00,,,0.00,VWS V14.01,2013-02-06 21:31:00,
2013-02-06 16:46:00,23.0,11.6,30.39,WNW,288,0.0,4.0,61,0.00,,,0.00,VWS V14.01,2013-02-06 21:46:00,
2013-02-06 17:01:00,22.2,11.5,30.39,NW,313,2.0,6.0,63,0.00,,,0.00,VWS V14.01,2013-02-06 22:01:00,
2013-02-06 17:16:00,21.6,11.3,30.39,NW,313,0.0,3.0,64,0.00,,,0.00,VWS V14.01,2013-02-06 22:16:00,
2013-02-06 17:31:00,20.9,11.3,30.39,NW,313,0.0,0.0,66,0.00,,,0.00,VWS V14.01,2013-02-06 22:31:00,
2013-02-06 17:46:00,20.1,11.2,30.39,NW,313,0.0,0.0,68,0.00,,,0.00,VWS V14.01,2013-02-06 22:46:00,
2013-02-06 18:01:00,19.5,11.0,30.40,NW,313,0.0,1.0,69,0.00,,,0.00,VWS V14.01,2013-02-06 23:01:00,
2013-02-06 18:16:00,18.9,11.1,30.40,NW,313,0.0,0.0,71,0.00,,,0.00,VWS V14.01,2013-02-06 23:16:00,
2013-02-06 18:31:00,18.0,10.5,30.41,NW,313,0.0,0.0,72,0.00,,,0.00,VWS V14.01,2013-02-06 23:31:00,
2013-02-06 18:46:00,17.2,10.4,30.41,NW,313,0.0,0.0,74,0.00,,,0.00,VWS V14.01,2013-02-06 23:46:00,
2013-02-06 19:01:00,16.7,10.5,30.42,NW,313,0.0,0.0,76,0.00,,,0.00,VWS V14.01,2013-02-07 00:01:00,
2013-02-06 19:16:00,15.9,9.7,30.42,NW,313,0.0,0.0,76,0.00,,,0.00,VWS V14.01,2013-02-07 00:16:00,
2013-02-06 19:31:00,15.8,10.2,30.43,NW,313,0.0,0.0,78,0.00,,,0.00,VWS V14.01,2013-02-07 00:31:00,
2013-02-06 19:46:00,15.3,10.0,30.44,NW,313,0.0,0.0,79,0.00,,,0.00,VWS V14.01,2013-02-07 00:46:00,
2013-02-06 20:01:00,15.7,11.2,30.45,NW,313,0.0,1.0,82,0.00,,,0.00,VWS V14.01,2013-02-07 01:01:00,
2013-02-06 20:16:00,16.6,12.1,30.46,NW,313,0.0,0.0,82,0.00,,,0.00,VWS V14.01,2013-02-07 01:16:00,
2013-02-06 20:31:00,16.8,12.3,30.46,NW,313,0.0,0.0,82,0.00,,,0.00,VWS V14.01,2013-02-07 01:31:00,
2013-02-06 20:46:00,17.1,12.6,30.47,NW,313,0.0,0.0,82,0.00,,,0.00,VWS V14.01,2013-02-07 01:46:00,
2013-02-06 21:01:00,17.1,12.3,30.46,NW,313,0.0,0.0,81,0.00,,,0.00,VWS V14.01,2013-02-07 02:01:00,
2013-02-06 21:16:00,16.8,12.0,30.47,NW,313,0.0,0.0,81,0.00,,,0.00,VWS V14.01,2013-02-07 02:16:00,
2013-02-06 21:31:00,16.8,12.0,30.46,NW,313,0.0,0.0,81,0.00,,,0.00,VWS V14.01,2013-02-07 02:31:00,
2013-02-06 21:46:00,16.8,12.0,30.47,NW,313,0.0,2.0,81,0.00,,,0.00,VWS V14.01,2013-02-07 02:46:00,
2013-02-06 22:01:00,16.6,12.1,30.47,NW,313,0.0,0.0,82,0.00,,,0.00,VWS V14.01,2013-02-07 03:01:00,
2013-02-06 22:16:00,16.9,12.6,30.46,NW,313,0.0,0.0,83,0.00,,,0.00,VWS V14.01,2013-02-07 03:16:00,
2013-02-06 22:31:00,17.2,12.7,30.47,NW,313,0.0,0.0,82,0.00,,,0.00,VWS V14.01,2013-02-07 03:31:00,
2013-02-06 22:46:00,17.0,12.2,30.47,NW,313,0.0,0.0,81,0.00,,,0.00,VWS V14.01,2013-02-07 03:46:00,
2013-02-06 23:01:00,16.4,11.6,30.48,NW,313,0.0,0.0,81,0.00,,,0.00,VWS V14.01,2013-02-07 04:01:00,
2013-02-06 23:16:00,16.2,12.0,30.48,NW,313,0.0,0.0,83,0.00,,,0.00,VWS V14.01,2013-02-07 04:16:00,
2013-02-06 23:31:00,15.6,11.6,30.47,NW,313,0.0,0.0,84,0.00,,,0.00,VWS V14.01,2013-02-07 04:31:00,
2013-02-06 23:46:00,14.4,10.5,30.46,NW,313,0.0,0.0,84,0.00,,,0.00,VWS V14.01,2013-02-07 04:46:00,